GFA320 OKKK-OBBI
Flight info
| Callsign | GFA320 |
|---|---|
| Flight time | 0h 46m |
| Altitude | 26000 |
| Route | BOXI4F BOXIK B416 IMDOX P975 LONOS L703 KOBOK KOBOK1 |
| Aircraft | A320/M-V/N |
Departure
| Time | 2026-05-07 10:26 |
|---|---|
| Airport | Kuwait International Airport (OKKK) |
Arrival
| Time | 2026-05-07 11:13 |
|---|---|
| Airport | Bahrain International Airport (OBBI) |
| Time | Latitude | Longitude | Altitude | Speed | Heading |
|---|---|---|---|---|---|
| 2026-05-07 10:06 | 29.23860 | 47.97138 | 166 ft | 0 kts | 29° |
| 2026-05-07 10:07 | 29.23860 | 47.97137 | 155 ft | 0 kts | 29° |
| 2026-05-07 10:18 | 29.23849 | 47.97130 | 155 ft | 3 kts | 29° |
| 2026-05-07 10:18 | 29.23833 | 47.97120 | 157 ft | 2 kts | 29° |
| 2026-05-07 10:18 | 29.23818 | 47.97110 | 154 ft | 3 kts | 53° |
| 2026-05-07 10:19 | 29.23796 | 47.97078 | 154 ft | 8 kts | 36° |
| 2026-05-07 10:19 | 29.23763 | 47.97070 | 154 ft | 0 kts | 338° |
| 2026-05-07 10:21 | 29.23791 | 47.97053 | 153 ft | 13 kts | 326° |
| 2026-05-07 10:21 | 29.23790 | 47.96953 | 151 ft | 15 kts | 246° |
| 2026-05-07 10:22 | 29.23739 | 47.96832 | 150 ft | 18 kts | 247° |
| 2026-05-07 10:22 | 29.23684 | 47.96698 | 149 ft | 19 kts | 244° |
| 2026-05-07 10:22 | 29.23583 | 47.96651 | 149 ft | 17 kts | 153° |
| 2026-05-07 10:22 | 29.23472 | 47.96710 | 150 ft | 18 kts | 153° |
| 2026-05-07 10:23 | 29.23358 | 47.96770 | 152 ft | 19 kts | 156° |
| 2026-05-07 10:23 | 29.23201 | 47.96851 | 154 ft | 32 kts | 155° |
| 2026-05-07 10:23 | 29.22955 | 47.96981 | 157 ft | 44 kts | 155° |
| 2026-05-07 10:23 | 29.22647 | 47.97144 | 162 ft | 54 kts | 155° |
| 2026-05-07 10:24 | 29.22285 | 47.97339 | 165 ft | 61 kts | 155° |
| 2026-05-07 10:24 | 29.21903 | 47.97542 | 170 ft | 59 kts | 154° |
| 2026-05-07 10:24 | 29.21618 | 47.97694 | 173 ft | 33 kts | 155° |
| 2026-05-07 10:24 | 29.21409 | 47.97804 | 176 ft | 33 kts | 152° |
| 2026-05-07 10:25 | 29.21229 | 47.97808 | 177 ft | 20 kts | 242° |
| 2026-05-07 10:25 | 29.21259 | 47.97703 | 177 ft | 14 kts | 309° |
| 2026-05-07 10:25 | 29.21328 | 47.97613 | 175 ft | 17 kts | 318° |
| 2026-05-07 10:25 | 29.21637 | 47.97439 | 169 ft | 85 kts | 336° |
| 2026-05-07 10:26 | 29.22354 | 47.97056 | 163 ft | 140 kts | 335° |
| 2026-05-07 10:26 | 29.23343 | 47.96540 | 409 ft | 165 kts | 335° |
| 2026-05-07 10:26 | 29.24470 | 47.95944 | 799 ft | 193 kts | 336° |
| 2026-05-07 10:26 | 29.25796 | 47.95512 | 1496 ft | 201 kts | 354° |
| 2026-05-07 10:27 | 29.27182 | 47.95570 | 2460 ft | 199 kts | 11° |
| 2026-05-07 10:27 | 29.28494 | 47.96096 | 3335 ft | 204 kts | 28° |
| 2026-05-07 10:27 | 29.29684 | 47.97082 | 3979 ft | 221 kts | 44° |
| 2026-05-07 10:27 | 29.30661 | 47.98530 | 4568 ft | 235 kts | 63° |
| 2026-05-07 10:28 | 29.31256 | 48.00286 | 5355 ft | 241 kts | 80° |
| 2026-05-07 10:28 | 29.31365 | 48.02237 | 6064 ft | 250 kts | 99° |
| 2026-05-07 10:28 | 29.30915 | 48.04213 | 6534 ft | 264 kts | 122° |
| 2026-05-07 10:28 | 29.29738 | 48.05713 | 7446 ft | 247 kts | 152° |
| 2026-05-07 10:29 | 29.28199 | 48.06530 | 8330 ft | 244 kts | 164° |
| 2026-05-07 10:29 | 29.26574 | 48.07126 | 9154 ft | 246 kts | 167° |
| 2026-05-07 10:29 | 29.24915 | 48.07675 | 9924 ft | 250 kts | 168° |
| 2026-05-07 10:30 | 29.21558 | 48.08758 | 11395 ft | 251 kts | 168° |
| 2026-05-07 10:30 | 29.19868 | 48.09302 | 12080 ft | 254 kts | 168° |
| 2026-05-07 10:30 | 29.18161 | 48.09850 | 12753 ft | 256 kts | 168° |
| 2026-05-07 10:30 | 29.16453 | 48.10433 | 13459 ft | 258 kts | 163° |
| 2026-05-07 10:31 | 29.14841 | 48.11370 | 14076 ft | 265 kts | 149° |
| 2026-05-07 10:31 | 29.13445 | 48.12803 | 14603 ft | 275 kts | 136° |
| 2026-05-07 10:31 | 29.12276 | 48.14576 | 15164 ft | 283 kts | 128° |
| 2026-05-07 10:31 | 29.11241 | 48.16522 | 15687 ft | 289 kts | 125° |
| 2026-05-07 10:32 | 29.10255 | 48.18550 | 16207 ft | 294 kts | 124° |
| 2026-05-07 10:32 | 29.09269 | 48.20621 | 16737 ft | 298 kts | 124° |
| 2026-05-07 10:32 | 29.08264 | 48.22718 | 17274 ft | 303 kts | 124° |
| 2026-05-07 10:32 | 29.07239 | 48.24836 | 17805 ft | 306 kts | 125° |
| 2026-05-07 10:33 | 29.06194 | 48.26977 | 18309 ft | 310 kts | 125° |
| 2026-05-07 10:33 | 29.05151 | 48.29108 | 18769 ft | 312 kts | 125° |
| 2026-05-07 10:33 | 29.04071 | 48.31310 | 19269 ft | 314 kts | 125° |
| 2026-05-07 10:33 | 29.03000 | 48.33494 | 19751 ft | 316 kts | 125° |
| 2026-05-07 10:34 | 29.01920 | 48.35693 | 20207 ft | 319 kts | 125° |
| 2026-05-07 10:34 | 29.00832 | 48.37907 | 20644 ft | 321 kts | 126° |
| 2026-05-07 10:34 | 28.99749 | 48.40109 | 21070 ft | 323 kts | 126° |
| 2026-05-07 10:34 | 28.98646 | 48.42350 | 21498 ft | 325 kts | 126° |
| 2026-05-07 10:35 | 28.97534 | 48.44610 | 21908 ft | 327 kts | 126° |
| 2026-05-07 10:35 | 28.96416 | 48.46880 | 22311 ft | 329 kts | 126° |
| 2026-05-07 10:35 | 28.95287 | 48.49171 | 22692 ft | 332 kts | 126° |
| 2026-05-07 10:35 | 28.94147 | 48.51482 | 23016 ft | 337 kts | 126° |
| 2026-05-07 10:36 | 28.92974 | 48.53852 | 23174 ft | 347 kts | 126° |
| 2026-05-07 10:36 | 28.91784 | 48.56263 | 23537 ft | 350 kts | 126° |
| 2026-05-07 10:36 | 28.90586 | 48.58693 | 23859 ft | 353 kts | 126° |
| 2026-05-07 10:36 | 28.89378 | 48.61143 | 24171 ft | 355 kts | 126° |
| 2026-05-07 10:37 | 28.88162 | 48.63602 | 24472 ft | 358 kts | 126° |
| 2026-05-07 10:37 | 28.86928 | 48.66098 | 24738 ft | 363 kts | 126° |
| 2026-05-07 10:37 | 28.85663 | 48.68645 | 24815 ft | 374 kts | 126° |
| 2026-05-07 10:37 | 28.84363 | 48.71261 | 24909 ft | 385 kts | 126° |
| 2026-05-07 10:38 | 28.83020 | 48.73961 | 24922 ft | 399 kts | 126° |
| 2026-05-07 10:38 | 28.81630 | 48.76757 | 24919 ft | 413 kts | 126° |
| 2026-05-07 10:38 | 28.80191 | 48.79653 | 24915 ft | 427 kts | 125° |
| 2026-05-07 10:38 | 28.78713 | 48.82652 | 24914 ft | 441 kts | 124° |
| 2026-05-07 10:39 | 28.77199 | 48.85748 | 24913 ft | 454 kts | 124° |
| 2026-05-07 10:39 | 28.75678 | 48.88871 | 24910 ft | 447 kts | 124° |
| 2026-05-07 10:39 | 28.74168 | 48.91959 | 24904 ft | 446 kts | 125° |
| 2026-05-07 10:39 | 28.72651 | 48.95039 | 24904 ft | 446 kts | 125° |
| 2026-05-07 10:40 | 28.71132 | 48.98118 | 24900 ft | 446 kts | 125° |
| 2026-05-07 10:40 | 28.69615 | 49.01194 | 24903 ft | 446 kts | 125° |
| 2026-05-07 10:40 | 28.68098 | 49.04273 | 24897 ft | 445 kts | 125° |
| 2026-05-07 10:40 | 28.66584 | 49.07346 | 24896 ft | 445 kts | 125° |
| 2026-05-07 10:41 | 28.65066 | 49.10427 | 24899 ft | 445 kts | 124° |
| 2026-05-07 10:41 | 28.63552 | 49.13499 | 24896 ft | 445 kts | 124° |
| 2026-05-07 10:41 | 28.62038 | 49.16570 | 24897 ft | 445 kts | 124° |
| 2026-05-07 10:41 | 28.60521 | 49.19642 | 24894 ft | 445 kts | 124° |
| 2026-05-07 10:42 | 28.58828 | 49.22547 | 24898 ft | 436 kts | 136° |
| 2026-05-07 10:42 | 28.56684 | 49.24927 | 24890 ft | 426 kts | 149° |
| 2026-05-07 10:42 | 28.54250 | 49.26673 | 24894 ft | 416 kts | 160° |
| 2026-05-07 10:42 | 28.51662 | 49.28246 | 24894 ft | 419 kts | 155° |
| 2026-05-07 10:43 | 28.49283 | 49.30131 | 24891 ft | 425 kts | 147° |
| 2026-05-07 10:43 | 28.47037 | 49.32339 | 24892 ft | 428 kts | 144° |
| 2026-05-07 10:43 | 28.44807 | 49.34572 | 24894 ft | 427 kts | 145° |
| 2026-05-07 10:43 | 28.42541 | 49.36830 | 24893 ft | 427 kts | 145° |
| 2026-05-07 10:44 | 28.40305 | 49.39052 | 24894 ft | 427 kts | 145° |
| 2026-05-07 10:44 | 28.38098 | 49.41243 | 24895 ft | 427 kts | 145° |
| 2026-05-07 10:44 | 28.35859 | 49.43462 | 24892 ft | 427 kts | 145° |
| 2026-05-07 10:44 | 28.33622 | 49.45680 | 24900 ft | 427 kts | 145° |
| 2026-05-07 10:45 | 28.31352 | 49.47928 | 24889 ft | 427 kts | 145° |
| 2026-05-07 10:45 | 28.29113 | 49.50142 | 24891 ft | 427 kts | 145° |
| 2026-05-07 10:45 | 28.26872 | 49.52353 | 24885 ft | 427 kts | 145° |
| 2026-05-07 10:45 | 28.24659 | 49.54534 | 24888 ft | 427 kts | 145° |
| 2026-05-07 10:46 | 28.22386 | 49.56769 | 24887 ft | 426 kts | 146° |
| 2026-05-07 10:46 | 28.20029 | 49.58773 | 24890 ft | 422 kts | 151° |
| 2026-05-07 10:46 | 28.17662 | 49.60652 | 24887 ft | 422 kts | 151° |
| 2026-05-07 10:46 | 28.15262 | 49.62565 | 24885 ft | 422 kts | 151° |
| 2026-05-07 10:47 | 28.12860 | 49.64481 | 24882 ft | 422 kts | 151° |
| 2026-05-07 10:47 | 28.10459 | 49.66396 | 24881 ft | 422 kts | 151° |
| 2026-05-07 10:47 | 28.08063 | 49.68308 | 24884 ft | 422 kts | 151° |
| 2026-05-07 10:47 | 28.05664 | 49.70220 | 24883 ft | 422 kts | 151° |
| 2026-05-07 10:48 | 28.03266 | 49.72130 | 24882 ft | 422 kts | 151° |
| 2026-05-07 10:48 | 28.00867 | 49.74039 | 24880 ft | 422 kts | 151° |
| 2026-05-07 10:48 | 27.98467 | 49.75949 | 24864 ft | 422 kts | 151° |
| 2026-05-07 10:48 | 27.96062 | 49.77860 | 24828 ft | 423 kts | 150° |
| 2026-05-07 10:49 | 27.93650 | 49.79777 | 24795 ft | 424 kts | 150° |
| 2026-05-07 10:49 | 27.91235 | 49.81694 | 24770 ft | 425 kts | 150° |
| 2026-05-07 10:49 | 27.88817 | 49.83614 | 24733 ft | 425 kts | 150° |
| 2026-05-07 10:49 | 27.86390 | 49.85540 | 24593 ft | 429 kts | 150° |
| 2026-05-07 10:50 | 27.83945 | 49.87496 | 23915 ft | 432 kts | 149° |
| 2026-05-07 10:50 | 27.81467 | 49.89468 | 22993 ft | 439 kts | 149° |
| 2026-05-07 10:50 | 27.78943 | 49.91467 | 21893 ft | 447 kts | 149° |
| 2026-05-07 10:50 | 27.76373 | 49.93500 | 20770 ft | 456 kts | 148° |
| 2026-05-07 10:51 | 27.73747 | 49.95574 | 19595 ft | 462 kts | 148° |
| 2026-05-07 10:51 | 27.71115 | 49.97655 | 18500 ft | 461 kts | 148° |
| 2026-05-07 10:51 | 27.68502 | 49.99720 | 17468 ft | 456 kts | 148° |
| 2026-05-07 10:51 | 27.65927 | 50.01755 | 16537 ft | 447 kts | 148° |
| 2026-05-07 10:52 | 27.63400 | 50.03749 | 15607 ft | 440 kts | 147° |
| 2026-05-07 10:52 | 27.60910 | 50.05711 | 14703 ft | 433 kts | 147° |
| 2026-05-07 10:52 | 27.58453 | 50.07646 | 13816 ft | 427 kts | 147° |
| 2026-05-07 10:52 | 27.56040 | 50.09545 | 12888 ft | 420 kts | 147° |
| 2026-05-07 10:53 | 27.53719 | 50.11375 | 12734 ft | 395 kts | 147° |
| 2026-05-07 10:53 | 27.51473 | 50.13140 | 12630 ft | 405 kts | 147° |
| 2026-05-07 10:53 | 27.49894 | 50.14378 | 12558 ft | 413 kts | 147° |
| 2026-05-07 10:53 | 27.46727 | 50.16860 | 12410 ft | 421 kts | 147° |
| 2026-05-07 10:54 | 27.45131 | 50.18114 | 12331 ft | 407 kts | 147° |
| 2026-05-07 10:54 | 27.42167 | 50.20476 | 12184 ft | 382 kts | 147° |
| 2026-05-07 10:54 | 27.40734 | 50.21642 | 12100 ft | 371 kts | 146° |
| 2026-05-07 10:54 | 27.38685 | 50.23315 | 11991 ft | 356 kts | 147° |
| 2026-05-07 10:55 | 27.36722 | 50.24916 | 11881 ft | 342 kts | 147° |
| 2026-05-07 10:55 | 27.34846 | 50.26441 | 11870 ft | 324 kts | 147° |
| 2026-05-07 10:55 | 27.33055 | 50.27892 | 11872 ft | 315 kts | 147° |
| 2026-05-07 10:55 | 27.31259 | 50.29325 | 11873 ft | 318 kts | 148° |
| 2026-05-07 10:56 | 27.29442 | 50.30776 | 11868 ft | 322 kts | 147° |
| 2026-05-07 10:56 | 27.27611 | 50.32245 | 11868 ft | 325 kts | 147° |
| 2026-05-07 10:56 | 27.25766 | 50.33737 | 11872 ft | 328 kts | 147° |
| 2026-05-07 10:56 | 27.23906 | 50.35243 | 11869 ft | 331 kts | 147° |
| 2026-05-07 10:57 | 27.22033 | 50.36761 | 11868 ft | 333 kts | 147° |
| 2026-05-07 10:57 | 27.20144 | 50.38290 | 11867 ft | 336 kts | 147° |
| 2026-05-07 10:57 | 27.18244 | 50.39829 | 11869 ft | 338 kts | 147° |
| 2026-05-07 10:57 | 27.16330 | 50.41378 | 11867 ft | 340 kts | 146° |
| 2026-05-07 10:58 | 27.14404 | 50.42935 | 11868 ft | 342 kts | 146° |
| 2026-05-07 10:58 | 27.12471 | 50.44496 | 11869 ft | 343 kts | 146° |
| 2026-05-07 10:58 | 27.10527 | 50.46065 | 11868 ft | 345 kts | 146° |
| 2026-05-07 10:58 | 27.08576 | 50.47639 | 11870 ft | 346 kts | 146° |
| 2026-05-07 10:59 | 27.06616 | 50.49218 | 11862 ft | 348 kts | 146° |
| 2026-05-07 10:59 | 27.04641 | 50.50810 | 11836 ft | 350 kts | 146° |
| 2026-05-07 10:59 | 27.02658 | 50.52406 | 11804 ft | 352 kts | 146° |
| 2026-05-07 10:59 | 27.00663 | 50.54012 | 11774 ft | 354 kts | 146° |
| 2026-05-07 11:00 | 26.98578 | 50.55470 | 11740 ft | 353 kts | 157° |
| 2026-05-07 11:00 | 26.96279 | 50.56420 | 11716 ft | 353 kts | 161° |
| 2026-05-07 11:00 | 26.93985 | 50.57447 | 11705 ft | 359 kts | 159° |
| 2026-05-07 11:00 | 26.91665 | 50.58575 | 11680 ft | 368 kts | 158° |
| 2026-05-07 11:01 | 26.89289 | 50.59734 | 11653 ft | 376 kts | 158° |
| 2026-05-07 11:01 | 26.86863 | 50.60896 | 11629 ft | 383 kts | 158° |
| 2026-05-07 11:01 | 26.84389 | 50.62063 | 11593 ft | 389 kts | 159° |
| 2026-05-07 11:01 | 26.81874 | 50.63237 | 11573 ft | 395 kts | 159° |
| 2026-05-07 11:02 | 26.79321 | 50.64424 | 11545 ft | 400 kts | 159° |
| 2026-05-07 11:02 | 26.76739 | 50.65623 | 11490 ft | 405 kts | 159° |
| 2026-05-07 11:02 | 26.74134 | 50.66858 | 11050 ft | 400 kts | 158° |
| 2026-05-07 11:02 | 26.71593 | 50.68067 | 10101 ft | 397 kts | 158° |
| 2026-05-07 11:03 | 26.69049 | 50.69251 | 9081 ft | 395 kts | 158° |
| 2026-05-07 11:03 | 26.66519 | 50.70418 | 8148 ft | 391 kts | 159° |
| 2026-05-07 11:03 | 26.64019 | 50.71569 | 7243 ft | 386 kts | 159° |
| 2026-05-07 11:03 | 26.61580 | 50.72690 | 6381 ft | 382 kts | 159° |
| 2026-05-07 11:04 | 26.59141 | 50.73809 | 5756 ft | 372 kts | 158° |
| 2026-05-07 11:04 | 26.56806 | 50.74880 | 5652 ft | 355 kts | 158° |
| 2026-05-07 11:04 | 26.54570 | 50.75908 | 5546 ft | 340 kts | 158° |
| 2026-05-07 11:04 | 26.52429 | 50.76892 | 5431 ft | 326 kts | 158° |
| 2026-05-07 11:05 | 26.50376 | 50.77834 | 5326 ft | 312 kts | 158° |
| 2026-05-07 11:05 | 26.48410 | 50.78736 | 5213 ft | 299 kts | 158° |
| 2026-05-07 11:05 | 26.46528 | 50.79600 | 5055 ft | 288 kts | 158° |
| 2026-05-07 11:05 | 26.44674 | 50.80452 | 4624 ft | 289 kts | 158° |
| 2026-05-07 11:06 | 26.42790 | 50.81316 | 3980 ft | 298 kts | 157° |
| 2026-05-07 11:06 | 26.40841 | 50.82209 | 3291 ft | 307 kts | 157° |
| 2026-05-07 11:06 | 26.38852 | 50.83124 | 2671 ft | 307 kts | 156° |
| 2026-05-07 11:06 | 26.36935 | 50.83999 | 2557 ft | 288 kts | 156° |
| 2026-05-07 11:07 | 26.35134 | 50.84815 | 2418 ft | 270 kts | 156° |
| 2026-05-07 11:07 | 26.33482 | 50.85567 | 2276 ft | 242 kts | 155° |
| 2026-05-07 11:07 | 26.31943 | 50.86278 | 1715 ft | 235 kts | 156° |
| 2026-05-07 11:07 | 26.30353 | 50.86870 | 2065 ft | 251 kts | 163° |
| 2026-05-07 11:08 | 26.28579 | 50.87024 | 1998 ft | 251 kts | 190° |
| 2026-05-07 11:08 | 26.27111 | 50.86251 | 1987 ft | 221 kts | 224° |
| 2026-05-07 11:08 | 26.26348 | 50.84930 | 1996 ft | 189 kts | 244° |
| 2026-05-07 11:08 | 26.25718 | 50.83740 | 1807 ft | 174 kts | 238° |
| 2026-05-07 11:09 | 26.25017 | 50.82473 | 1533 ft | 208 kts | 232° |
| 2026-05-07 11:09 | 26.23954 | 50.81354 | 1745 ft | 211 kts | 218° |
| 2026-05-07 11:09 | 26.22872 | 50.80408 | 1782 ft | 192 kts | 219° |
| 2026-05-07 11:09 | 26.21785 | 50.79450 | 1940 ft | 210 kts | 218° |
| 2026-05-07 11:10 | 26.20731 | 50.78260 | 2333 ft | 218 kts | 243° |
| 2026-05-07 11:10 | 26.20340 | 50.76547 | 2516 ft | 237 kts | 276° |
| 2026-05-07 11:10 | 26.20718 | 50.74895 | 2458 ft | 232 kts | 291° |
| 2026-05-07 11:10 | 26.21331 | 50.73303 | 2053 ft | 218 kts | 299° |
| 2026-05-07 11:11 | 26.22102 | 50.71898 | 1755 ft | 205 kts | 307° |
| 2026-05-07 11:11 | 26.22844 | 50.70590 | 1435 ft | 196 kts | 304° |
| 2026-05-07 11:11 | 26.23551 | 50.69326 | 1151 ft | 183 kts | 306° |
| 2026-05-07 11:11 | 26.24238 | 50.68182 | 859 ft | 185 kts | 307° |
| 2026-05-07 11:12 | 26.24955 | 50.66998 | 565 ft | 179 kts | 304° |
| 2026-05-07 11:12 | 26.25597 | 50.65885 | 353 ft | 165 kts | 305° |
| 2026-05-07 11:12 | 26.26202 | 50.64866 | 106 ft | 149 kts | 304° |
| 2026-05-07 11:12 | 26.26733 | 50.63961 | 19 ft | 129 kts | 304° |
| 2026-05-07 11:13 | 26.27174 | 50.63211 | 15 ft | 101 kts | 302° |
| 2026-05-07 11:13 | 26.27483 | 50.62676 | 18 ft | 65 kts | 303° |
| 2026-05-07 11:13 | 26.27609 | 50.62459 | 17 ft | 2 kts | 303° |
| 2026-05-07 11:13 | 26.27650 | 50.62388 | 15 ft | 23 kts | 302° |
| 2026-05-07 11:14 | 26.27762 | 50.62161 | 16 ft | 41 kts | 285° |
| 2026-05-07 11:14 | 26.27729 | 50.61981 | 17 ft | 14 kts | 210° |
| 2026-05-07 11:14 | 26.27655 | 50.62034 | 18 ft | 20 kts | 122° |
| 2026-05-07 11:14 | 26.27554 | 50.62202 | 18 ft | 30 kts | 124° |
| 2026-05-07 11:15 | 26.27435 | 50.62414 | 17 ft | 35 kts | 122° |
| 2026-05-07 11:15 | 26.27319 | 50.62542 | 17 ft | 17 kts | 197° |
| 2026-05-07 11:15 | 26.27213 | 50.62560 | 17 ft | 17 kts | 128° |
| 2026-05-07 11:15 | 26.27130 | 50.62629 | 17 ft | 11 kts | 169° |
| 2026-05-07 11:16 | 26.27069 | 50.62602 | 17 ft | 1 kts | 210° |
| 2026-05-07 11:16 | 26.27067 | 50.62600 | 17 ft | 3 kts | 210° |
| 2026-05-07 11:16 | 26.27062 | 50.62597 | 17 ft | 0 kts | 210° |